Time,TemperatureF,DewpointF,PressureIn,WindDirection,WindDirectionDegrees,WindSpeedMPH,WindSpeedGustMPH,Humidity,HourlyPrecipIn,Conditions,Clouds,dailyrainin,SoftwareType,DateUTC
2011-10-14 00:03:00,45.3,30.9,29.99,SSW,202,0.0,0.0,57,0.00,,,0.00,open2300-1.11,2011-10-14 06:03:00,
2011-10-14 00:18:00,46.8,30.9,29.99,WNW,292,0.0,0.0,54,0.00,,,0.00,open2300-1.11,2011-10-14 06:18:00,
2011-10-14 00:33:00,47.1,30.3,30.00,WNW,292,0.0,0.0,52,0.00,,,0.00,open2300-1.11,2011-10-14 06:33:00,
2011-10-14 00:48:00,47.1,30.3,30.00,West,270,0.0,1.3,52,0.00,,,0.00,open2300-1.11,2011-10-14 06:48:00,
2011-10-14 01:03:00,46.6,30.3,30.00,WNW,292,0.0,0.0,53,0.00,,,0.00,open2300-1.11,2011-10-14 07:03:00,
2011-10-14 01:18:00,45.7,30.4,30.01,WNW,292,0.0,0.0,55,0.00,,,0.00,open2300-1.11,2011-10-14 07:18:00,
2011-10-14 01:33:00,46.0,30.7,30.01,WNW,292,0.0,0.0,55,0.00,,,0.00,open2300-1.11,2011-10-14 07:33:00,
2011-10-14 01:48:00,46.2,30.9,30.01,West,270,0.0,0.7,55,0.00,,,0.00,open2300-1.11,2011-10-14 07:48:00,
2011-10-14 02:03:00,46.2,30.9,30.01,WSW,247,0.0,4.2,55,0.00,,,0.00,open2300-1.11,2011-10-14 08:03:00,
2011-10-14 02:18:00,46.8,30.9,30.01,WSW,247,0.0,1.8,54,0.00,,,0.00,open2300-1.11,2011-10-14 08:18:00,
2011-10-14 02:33:00,46.2,30.9,30.01,West,270,0.0,0.0,55,0.00,,,0.00,open2300-1.11,2011-10-14 08:33:00,
2011-10-14 02:48:00,46.0,31.1,30.02,SW,225,0.0,2.0,56,0.00,,,0.00,open2300-1.11,2011-10-14 08:48:00,
2011-10-14 03:04:00,46.2,31.3,30.01,West,270,0.0,5.1,56,0.00,,,0.00,open2300-1.11,2011-10-14 09:04:00,
2011-10-14 03:18:00,46.4,31.5,30.01,West,270,1.3,9.6,56,0.00,,,0.00,open2300-1.11,2011-10-14 09:18:00,
2011-10-14 03:33:00,46.6,31.2,30.01,West,270,0.0,5.6,55,0.00,,,0.00,open2300-1.11,2011-10-14 09:33:00,
2011-10-14 03:48:00,46.2,31.3,30.01,West,270,3.8,6.3,56,0.00,,,0.00,open2300-1.11,2011-10-14 09:48:00,
2011-10-14 04:04:00,45.7,30.8,30.01,West,270,5.6,5.6,56,0.00,,,0.00,open2300-1.11,2011-10-14 10:04:00,
2011-10-14 04:18:00,46.2,31.3,30.01,West,270,0.0,8.1,56,0.00,,,0.00,open2300-1.11,2011-10-14 10:18:00,
2011-10-14 04:33:00,46.0,31.1,30.00,WNW,292,0.7,4.0,56,0.00,,,0.00,open2300-1.11,2011-10-14 10:33:00,
2011-10-14 04:48:00,46.2,30.9,30.00,WNW,292,0.0,5.4,55,0.00,,,0.00,open2300-1.11,2011-10-14 10:48:00,
2011-10-14 05:03:00,45.3,30.5,30.00,WNW,292,0.0,0.0,56,0.00,,,0.00,open2300-1.11,2011-10-14 11:03:00,
2011-10-14 05:18:00,45.5,30.6,30.00,WNW,292,1.8,5.4,56,0.00,,,0.00,open2300-1.11,2011-10-14 11:18:00,
2011-10-14 05:33:00,45.9,31.0,30.00,WNW,292,6.0,6.9,56,0.00,,,0.00,open2300-1.11,2011-10-14 11:33:00,
2011-10-14 05:49:00,46.6,31.2,30.01,WNW,292,6.5,6.9,55,0.00,,,0.00,open2300-1.11,2011-10-14 11:49:00,
2011-10-14 06:03:00,47.1,31.2,30.02,WNW,292,1.8,6.5,54,0.00,,,0.00,open2300-1.11,2011-10-14 12:03:00,
2011-10-14 06:18:00,46.2,30.4,30.02,West,270,0.0,6.0,54,0.00,,,0.00,open2300-1.11,2011-10-14 12:18:00,
2011-10-14 06:33:00,43.3,29.5,30.02,West,270,0.0,0.0,58,0.00,,,0.00,open2300-1.11,2011-10-14 12:33:00,
2011-10-14 06:48:00,43.9,30.5,30.02,WNW,292,4.5,4.5,59,0.00,,,0.00,open2300-1.11,2011-10-14 12:48:00,
2011-10-14 07:03:00,45.1,31.2,30.02,West,270,0.0,7.8,58,0.00,,,0.00,open2300-1.11,2011-10-14 13:03:00,
2011-10-14 07:18:00,45.1,31.2,30.02,WNW,292,3.6,5.4,58,0.00,,,0.00,open2300-1.11,2011-10-14 13:18:00,
2011-10-14 07:33:00,45.3,30.9,30.02,WNW,292,0.0,6.0,57,0.00,,,0.00,open2300-1.11,2011-10-14 13:33:00,
2011-10-14 07:48:00,45.1,31.2,30.02,WNW,292,6.5,6.5,58,0.00,,,0.00,open2300-1.11,2011-10-14 13:48:00,
2011-10-14 08:03:00,45.0,31.1,30.03,West,270,0.0,6.5,58,0.00,,,0.00,open2300-1.11,2011-10-14 14:03:00,
2011-10-14 08:18:00,45.1,32.1,30.04,West,270,0.0,0.0,60,0.00,,,0.00,open2300-1.11,2011-10-14 14:18:00,
2011-10-14 08:33:00,48.4,34.3,30.04,WSW,247,0.0,0.0,58,0.00,,,0.00,open2300-1.11,2011-10-14 14:33:00,
2011-10-14 08:48:00,50.4,35.2,30.04,WSW,247,0.0,0.0,56,0.00,,,0.00,open2300-1.11,2011-10-14 14:48:00,
2011-10-14 09:03:00,51.6,35.9,30.04,WSW,247,0.0,0.0,55,0.00,,,0.00,open2300-1.11,2011-10-14 15:03:00,
2011-10-14 09:18:00,52.9,36.6,30.04,WSW,247,0.0,0.0,54,0.00,,,0.00,open2300-1.11,2011-10-14 15:18:00,
2011-10-14 09:33:00,54.1,37.3,30.04,WSW,247,0.0,0.0,53,0.00,,,0.00,open2300-1.11,2011-10-14 15:33:00,
2011-10-14 09:48:00,56.3,38.4,30.04,WSW,247,0.0,0.0,51,0.00,,,0.00,open2300-1.11,2011-10-14 15:48:00,
2011-10-14 10:03:00,58.6,38.4,30.05,WSW,247,0.0,0.0,47,0.00,,,0.00,open2300-1.11,2011-10-14 16:03:00,
2011-10-14 10:18:00,60.1,38.5,30.04,West,270,0.0,0.0,45,0.00,,,0.00,open2300-1.11,2011-10-14 16:18:00,
2011-10-14 10:33:00,61.0,38.2,30.04,West,270,0.0,0.0,43,0.00,,,0.00,open2300-1.11,2011-10-14 16:33:00,
2011-10-14 10:48:00,61.9,34.4,30.04,West,270,0.0,0.0,36,0.00,,,0.00,open2300-1.11,2011-10-14 16:48:00,
2011-10-14 11:03:00,64.0,32.8,30.04,NE,45,0.0,0.0,31,0.00,,,0.00,open2300-1.11,2011-10-14 17:03:00,
2011-10-14 11:18:00,64.8,33.4,30.03,ENE,67,0.0,0.0,31,0.00,,,0.00,open2300-1.11,2011-10-14 17:18:00,
2011-10-14 11:33:00,66.0,34.5,30.04,ENE,67,0.0,0.7,31,0.00,,,0.00,open2300-1.11,2011-10-14 17:33:00,
2011-10-14 11:48:00,66.9,31.5,30.03,East,90,0.0,0.9,27,0.00,,,0.00,open2300-1.11,2011-10-14 17:48:00,
2011-10-14 12:03:00,67.6,30.2,30.03,East,90,0.0,0.0,25,0.00,,,0.00,open2300-1.11,2011-10-14 18:03:00,
2011-10-14 12:18:00,68.5,31.9,30.03,East,90,0.0,1.6,26,0.00,,,0.00,open2300-1.11,2011-10-14 18:18:00,
2011-10-14 12:33:00,69.1,31.4,30.02,ENE,67,0.0,0.0,25,0.00,,,0.00,open2300-1.11,2011-10-14 18:33:00,
2011-10-14 12:48:00,69.6,30.8,30.02,East,90,0.9,0.9,24,0.00,,,0.00,open2300-1.11,2011-10-14 18:48:00,
2011-10-14 13:03:00,70.0,30.1,30.01,East,90,0.0,0.9,23,0.00,,,0.00,open2300-1.11,2011-10-14 19:03:00,
2011-10-14 13:18:00,70.2,30.3,30.01,East,90,0.0,0.0,23,0.00,,,0.00,open2300-1.11,2011-10-14 19:18:00,
2011-10-14 13:33:00,70.3,31.4,30.01,SE,135,0.0,0.0,24,0.00,,,0.00,open2300-1.11,2011-10-14 19:33:00,
2011-10-14 13:48:00,70.9,30.9,30.00,ESE,112,0.0,0.0,23,0.00,,,0.00,open2300-1.11,2011-10-14 19:48:00,
2011-10-14 14:03:00,71.2,32.2,29.99,SE,135,0.0,0.0,24,0.00,,,0.00,open2300-1.11,2011-10-14 20:03:00,
2011-10-14 14:18:00,71.4,33.4,29.99,SE,135,0.0,0.0,25,0.00,,,0.00,open2300-1.11,2011-10-14 20:18:00,
2011-10-14 14:33:00,72.0,30.8,29.98,SE,135,0.0,1.6,22,0.00,,,0.00,open2300-1.11,2011-10-14 20:33:00,
2011-10-14 14:48:00,72.5,31.2,29.97,SE,135,0.0,0.0,22,0.00,,,0.00,open2300-1.11,2011-10-14 20:48:00,
2011-10-14 15:03:00,73.2,31.9,29.97,ESE,112,0.0,0.0,22,0.00,,,0.00,open2300-1.11,2011-10-14 21:03:00,
2011-10-14 15:18:00,73.8,31.3,29.98,East,90,0.0,0.0,21,0.00,,,0.00,open2300-1.11,2011-10-14 21:18:00,
2011-10-14 15:33:00,74.3,31.8,29.97,East,90,0.0,0.0,21,0.00,,,0.00,open2300-1.11,2011-10-14 21:33:00,
2011-10-14 15:48:00,74.5,32.9,29.97,ESE,112,0.0,0.0,22,0.00,,,0.00,open2300-1.11,2011-10-14 21:48:00,
2011-10-14 16:03:00,76.8,33.8,29.97,ESE,112,0.0,0.0,21,0.00,,,0.00,open2300-1.11,2011-10-14 22:03:00,
2011-10-14 16:18:00,81.1,34.7,29.97,ESE,112,0.0,0.0,19,0.00,,,0.00,open2300-1.11,2011-10-14 22:18:00,
2011-10-14 16:33:00,82.2,33.9,29.98,East,90,0.0,0.0,18,0.00,,,0.00,open2300-1.11,2011-10-14 22:33:00,
2011-10-14 16:48:00,82.2,32.2,29.97,ESE,112,0.0,0.0,17,0.00,,,0.00,open2300-1.11,2011-10-14 22:48:00,
2011-10-14 17:03:00,80.6,34.3,29.97,ESE,112,0.0,1.8,19,0.00,,,0.00,open2300-1.11,2011-10-14 23:03:00,
2011-10-14 17:18:00,81.0,34.6,29.97,ESE,112,0.0,0.0,19,0.00,,,0.00,open2300-1.11,2011-10-14 23:18:00,
2011-10-14 17:33:00,80.4,34.1,29.97,East,90,0.0,0.0,19,0.00,,,0.00,open2300-1.11,2011-10-14 23:33:00,
2011-10-14 17:48:00,79.5,31.6,29.97,ESE,112,0.0,0.0,18,0.00,,,0.00,open2300-1.11,2011-10-14 23:48:00,
2011-10-14 18:03:00,78.1,33.8,29.97,ESE,112,0.0,0.0,20,0.00,,,0.00,open2300-1.11,2011-10-15 00:03:00,
2011-10-14 18:18:00,72.1,32.0,29.98,ESE,112,0.0,0.0,23,0.00,,,0.00,open2300-1.11,2011-10-15 00:18:00,
2011-10-14 18:33:00,65.3,31.2,29.98,ESE,112,0.0,0.0,28,0.00,,,0.00,open2300-1.11,2011-10-15 00:33:00,
2011-10-14 18:48:00,60.1,32.1,29.98,ESE,112,0.0,0.0,35,0.00,,,0.00,open2300-1.11,2011-10-15 00:48:00,
2011-10-14 19:03:00,56.1,32.1,29.99,ESE,112,0.0,0.0,40,0.00,,,0.00,open2300-1.11,2011-10-15 01:03:00,
2011-10-14 19:18:00,53.2,31.8,29.99,ESE,112,0.0,0.0,44,0.00,,,0.00,open2300-1.11,2011-10-15 01:18:00,
2011-10-14 19:33:00,51.1,31.5,29.99,ESE,112,0.0,0.0,47,0.00,,,0.00,open2300-1.11,2011-10-15 01:33:00,
2011-10-14 19:48:00,49.3,31.5,29.99,ESE,112,0.0,0.0,50,0.00,,,0.00,open2300-1.11,2011-10-15 01:48:00,
2011-10-14 20:03:00,47.8,31.4,30.00,ESE,112,0.0,0.0,53,0.00,,,0.00,open2300-1.11,2011-10-15 02:03:00,
2011-10-14 20:18:00,46.4,30.6,30.00,ESE,112,0.0,0.0,54,0.00,,,0.00,open2300-1.11,2011-10-15 02:18:00,
2011-10-14 20:33:00,45.5,31.1,30.00,ESE,112,0.0,0.0,57,0.00,,,0.00,open2300-1.11,2011-10-15 02:33:00,
2011-10-14 20:48:00,44.6,31.2,30.01,ESE,112,0.0,0.0,59,0.00,,,0.00,open2300-1.11,2011-10-15 02:48:00,
2011-10-14 21:03:00,43.7,30.7,30.02,ESE,112,0.0,0.0,60,0.00,,,0.00,open2300-1.11,2011-10-15 03:03:00,
2011-10-14 21:18:00,44.4,31.5,30.02,ESE,112,0.0,0.0,60,0.00,,,0.00,open2300-1.11,2011-10-15 03:18:00,
2011-10-14 21:33:00,45.0,32.3,30.02,ESE,112,0.0,0.0,61,0.00,,,0.00,open2300-1.11,2011-10-15 03:33:00,
2011-10-14 21:48:00,46.6,32.5,30.02,WNW,292,0.0,0.0,58,0.00,,,0.00,open2300-1.11,2011-10-15 03:48:00,
2011-10-14 22:03:00,47.5,32.5,30.02,WNW,292,0.0,0.0,56,0.00,,,0.00,open2300-1.11,2011-10-15 04:03:00,
2011-10-14 22:18:00,50.0,33.1,30.02,WNW,292,0.0,0.0,52,0.00,,,0.00,open2300-1.11,2011-10-15 04:18:00,
2011-10-14 22:33:00,53.2,33.4,30.03,NW,315,0.0,1.8,47,0.00,,,0.00,open2300-1.11,2011-10-15 04:33:00,
2011-10-14 22:49:00,54.3,32.7,30.03,WNW,292,8.3,9.4,44,0.00,,,0.00,open2300-1.11,2011-10-15 04:49:00,
2011-10-14 23:03:00,53.8,32.8,30.03,WNW,292,0.0,8.3,45,0.00,,,0.00,open2300-1.11,2011-10-15 05:03:00,
2011-10-14 23:18:00,52.5,32.2,30.04,WNW,292,0.0,3.6,46,0.00,,,0.00,open2300-1.11,2011-10-15 05:18:00,
2011-10-14 23:33:00,52.3,32.6,30.04,West,270,2.0,2.2,47,0.00,,,0.00,open2300-1.11,2011-10-15 05:33:00,
2011-10-14 23:48:00,52.2,32.5,30.04,WNW,292,0.0,10.1,47,0.00,,,0.00,open2300-1.11,2011-10-15 05:48:00,